Terminal Aerodrome Forecast
Issued by NWS

Home | Current Version | Previous Version | Text Only | Print | Product List | Glossary On
Versions: 1 2 3 4 5 6 7 8 9 10 11 12 13 14 15 16 17 18 19 20 21 22 23 24 25 26 27 28
000
FTUS43 KLOT 241120
TAFORD
TAF
KORD 241120Z 2412/2518 29010KT P6SM FEW090
     FM241500 29015G23KT P6SM BKN050
     FM250100 27008KT P6SM SCT050 BKN070
     FM251500 29012G17KT P6SM SCT045=

USA.gov is the U.S. government's official web portal to all federal, state and local government web resources and services.